createdAt,value
2017-08-19T00:00:54.946Z,99.99
2017-08-19T00:01:56.831Z,99.99
2017-08-19T00:02:58.652Z,99.99
2017-08-19T00:04:00.482Z,99.99
2017-08-19T00:05:02.367Z,99.99
2017-08-19T00:06:04.208Z,99.99
2017-08-19T00:07:06.032Z,99.99
2017-08-19T00:08:20.192Z,99.99
2017-08-19T00:09:22.073Z,99.99
2017-08-19T00:10:23.960Z,99.99
2017-08-19T00:11:25.853Z,99.99
2017-08-19T00:12:27.676Z,99.99
2017-08-19T00:13:29.506Z,99.99
2017-08-19T00:14:31.398Z,99.99
2017-08-19T00:15:33.277Z,99.99
2017-08-19T00:16:35.171Z,99.99
2017-08-19T00:17:49.334Z,99.99
2017-08-19T00:18:51.227Z,99.99
2017-08-19T00:19:53.124Z,99.99
2017-08-19T00:20:55.011Z,99.99
2017-08-19T00:21:56.833Z,99.99
2017-08-19T00:22:58.674Z,99.99
2017-08-19T00:24:00.555Z,99.99
2017-08-19T00:25:02.439Z,99.99
2017-08-19T00:26:04.325Z,99.99
2017-08-19T00:27:18.490Z,99.99
2017-08-19T00:28:20.384Z,99.99
2017-08-19T00:29:22.279Z,99.99
2017-08-19T00:30:24.166Z,99.99
2017-08-19T00:31:25.987Z,99.99
2017-08-19T00:32:27.815Z,99.99
2017-08-19T00:33:29.698Z,99.99
2017-08-19T00:34:31.586Z,99.99
2017-08-19T00:35:33.470Z,99.99
2017-08-19T00:36:47.683Z,99.99
2017-08-19T00:37:49.564Z,99.99
2017-08-19T00:38:51.466Z,99.99
2017-08-19T00:39:53.348Z,99.99
2017-08-19T00:40:55.173Z,99.99
2017-08-19T00:41:57.010Z,99.99
2017-08-19T00:42:58.894Z,99.99
2017-08-19T00:44:00.780Z,99.99
2017-08-19T00:45:02.668Z,99.99
2017-08-19T00:46:16.879Z,99.99
2017-08-19T00:47:18.762Z,99.99
2017-08-19T00:48:20.648Z,99.99
2017-08-19T00:49:22.527Z,99.99
2017-08-19T00:50:24.362Z,99.99
2017-08-19T00:51:26.189Z,99.99
2017-08-19T00:52:28.072Z,99.99
2017-08-19T00:53:29.956Z,99.99
2017-08-19T00:54:31.845Z,99.99
2017-08-19T00:55:46.054Z,99.99
2017-08-19T00:56:47.936Z,99.99
2017-08-19T00:57:49.830Z,99.99
2017-08-19T00:58:51.713Z,99.99
2017-08-19T00:59:53.537Z,99.99
2017-08-19T01:00:55.361Z,99.99
2017-08-19T01:01:57.246Z,99.99
2017-08-19T01:02:59.128Z,99.99
2017-08-19T01:04:01.014Z,99.99
2017-08-19T01:05:15.179Z,99.99
2017-08-19T01:06:17.073Z,99.99
2017-08-19T01:07:18.969Z,99.99
2017-08-19T01:08:20.856Z,99.99
2017-08-19T01:09:22.696Z,99.99
2017-08-19T01:10:24.520Z,99.99
2017-08-19T01:11:26.416Z,99.99
2017-08-19T01:12:28.300Z,99.99
2017-08-19T01:13:30.187Z,99.99
2017-08-19T01:14:44.346Z,99.99
2017-08-19T01:15:46.239Z,99.99
2017-08-19T01:16:48.126Z,99.99
2017-08-19T01:17:50.007Z,99.99
2017-08-19T01:18:51.829Z,99.99
2017-08-19T01:19:53.655Z,99.99
2017-08-19T01:20:55.540Z,99.99
2017-08-19T01:21:57.423Z,99.99
2017-08-19T01:22:59.307Z,99.99
2017-08-19T01:24:13.468Z,99.99
2017-08-19T01:25:15.351Z,99.99
2017-08-19T01:26:17.242Z,99.99
2017-08-19T01:27:19.135Z,99.99
2017-08-19T01:28:20.971Z,99.99
2017-08-19T01:29:22.794Z,99.99
2017-08-19T01:30:24.690Z,99.99
2017-08-19T01:31:26.575Z,99.99
2017-08-19T01:32:28.460Z,99.99
2017-08-19T01:33:42.631Z,99.99
2017-08-19T01:34:44.514Z,99.99
2017-08-19T01:35:46.410Z,99.99
2017-08-19T01:36:48.293Z,99.99
2017-08-19T01:37:50.119Z,99.99
2017-08-19T01:38:51.945Z,99.99
2017-08-19T01:39:53.843Z,99.99
2017-08-19T01:40:55.727Z,99.99
2017-08-19T01:41:57.610Z,99.99
2017-08-19T01:43:11.768Z,99.99
2017-08-19T01:44:13.651Z,99.99
2017-08-19T01:45:15.545Z,99.99
2017-08-19T01:46:17.431Z,99.99
2017-08-19T01:47:19.255Z,99.99
2017-08-19T01:48:21.079Z,99.99
2017-08-19T01:49:22.964Z,99.99
2017-08-19T01:50:24.859Z,99.99
2017-08-19T01:51:26.743Z,99.99
2017-08-19T01:52:40.903Z,99.99
2017-08-19T01:53:42.789Z,99.99
2017-08-19T01:54:44.678Z,99.99
2017-08-19T01:55:46.565Z,99.99
2017-08-19T01:56:48.392Z,99.99
2017-08-19T01:57:50.216Z,99.99
2017-08-19T01:58:52.101Z,99.99
2017-08-19T01:59:53.986Z,99.99
2017-08-19T02:00:55.871Z,99.99
2017-08-19T02:02:10.031Z,99.99
2017-08-19T02:03:11.915Z,99.99
2017-08-19T02:04:13.804Z,99.99
2017-08-19T02:05:15.694Z,99.99
2017-08-19T02:06:17.519Z,99.99
2017-08-19T02:07:19.346Z,99.99
2017-08-19T02:08:21.230Z,99.99
2017-08-19T02:09:23.114Z,99.99
2017-08-19T02:10:25.000Z,99.99
2017-08-19T02:11:39.163Z,99.99
2017-08-19T02:12:41.047Z,99.99
2017-08-19T02:13:42.938Z,99.99
2017-08-19T02:14:44.825Z,99.99
2017-08-19T02:15:46.651Z,99.99
2017-08-19T02:16:48.488Z,99.99
2017-08-19T02:17:50.376Z,99.99
2017-08-19T02:18:52.266Z,99.99
2017-08-19T02:19:54.152Z,99.99
2017-08-19T02:21:08.311Z,99.99
2017-08-19T02:22:10.208Z,99.99
2017-08-19T02:23:12.095Z,99.99
2017-08-19T02:24:13.986Z,99.99
2017-08-19T02:25:15.821Z,99.99
2017-08-19T02:26:17.647Z,99.99
2017-08-19T02:27:19.535Z,99.99
2017-08-19T02:28:21.423Z,99.99
2017-08-19T02:29:23.314Z,99.99
2017-08-19T02:30:37.467Z,99.99
2017-08-19T02:31:39.363Z,99.99
2017-08-19T02:32:41.264Z,99.99
2017-08-19T02:33:43.155Z,99.99
2017-08-19T02:34:44.985Z,99.99
2017-08-19T02:35:46.805Z,99.99
2017-08-19T02:36:48.693Z,99.99
2017-08-19T02:37:50.591Z,99.99
2017-08-19T02:38:52.482Z,99.99
2017-08-19T02:40:06.689Z,99.99
2017-08-19T02:41:08.575Z,99.99
2017-08-19T02:42:10.468Z,99.99
2017-08-19T02:43:12.361Z,99.99
2017-08-19T02:44:14.182Z,99.99
2017-08-19T02:45:16.007Z,99.99
2017-08-19T02:46:17.895Z,99.99
2017-08-19T02:47:19.782Z,99.99
2017-08-19T02:48:21.679Z,99.99
2017-08-19T02:49:35.836Z,99.99
2017-08-19T02:50:37.717Z,99.99
2017-08-19T02:51:39.603Z,99.99
2017-08-19T02:52:41.488Z,99.99
2017-08-19T02:53:43.313Z,99.99
2017-08-19T02:54:45.138Z,99.99
2017-08-19T02:55:47.024Z,99.99
2017-08-19T02:56:48.908Z,99.99
2017-08-19T02:57:50.794Z,99.99
2017-08-19T02:59:04.952Z,99.99
2017-08-19T03:00:06.837Z,99.99
2017-08-19T03:01:08.729Z,99.99
2017-08-19T03:02:10.615Z,99.99
2017-08-19T03:03:12.440Z,99.99
2017-08-19T03:04:14.267Z,99.99
2017-08-19T03:05:16.150Z,99.99
2017-08-19T03:06:18.035Z,99.99
2017-08-19T03:07:19.921Z,99.99
2017-08-19T03:08:34.076Z,99.99
2017-08-19T03:09:35.974Z,99.99
2017-08-19T03:10:37.865Z,99.99
2017-08-19T03:11:39.754Z,99.99
2017-08-19T03:12:41.578Z,99.99
2017-08-19T03:13:43.416Z,99.99
2017-08-19T03:14:45.303Z,99.99
2017-08-19T03:15:47.190Z,99.99
2017-08-19T03:16:49.076Z,99.99
2017-08-19T03:18:03.238Z,99.99
2017-08-19T03:19:05.125Z,99.99
2017-08-19T03:20:07.017Z,99.99
2017-08-19T03:21:08.908Z,99.99
2017-08-19T03:22:10.729Z,99.99
2017-08-19T03:23:12.568Z,99.99
2017-08-19T03:24:14.453Z,99.99
2017-08-19T03:25:16.343Z,99.99
2017-08-19T03:26:18.228Z,99.99
2017-08-19T03:27:32.384Z,99.99
2017-08-19T03:28:34.269Z,99.99
2017-08-19T03:29:36.158Z,99.99
2017-08-19T03:30:38.046Z,99.99
2017-08-19T03:31:39.869Z,99.99
2017-08-19T03:32:41.696Z,99.99
2017-08-19T03:33:43.583Z,99.99
2017-08-19T03:34:45.469Z,99.99
2017-08-19T03:35:47.368Z,99.99
2017-08-19T03:37:01.523Z,99.99
2017-08-19T03:38:03.416Z,99.99
2017-08-19T03:39:05.312Z,99.99
2017-08-19T03:40:07.197Z,99.99
2017-08-19T03:41:09.042Z,99.99
2017-08-19T03:42:10.868Z,99.99
2017-08-19T03:43:12.755Z,99.99
2017-08-19T03:44:14.638Z,99.99
2017-08-19T03:45:16.524Z,99.99
2017-08-19T03:46:30.683Z,99.99
2017-08-19T03:47:32.565Z,99.99
2017-08-19T03:48:34.460Z,99.99
2017-08-19T03:49:36.346Z,99.99
2017-08-19T03:50:38.173Z,99.99
2017-08-19T03:51:39.998Z,99.99
2017-08-19T03:52:41.882Z,99.99
2017-08-19T03:53:43.766Z,99.99
2017-08-19T03:54:45.651Z,99.99
2017-08-19T03:55:59.809Z,99.99
2017-08-19T03:57:01.693Z,99.99
2017-08-19T03:58:03.582Z,99.99
2017-08-19T03:59:05.472Z,99.99
2017-08-19T04:00:07.294Z,99.99
2017-08-19T04:01:09.131Z,99.99
2017-08-19T04:02:11.017Z,99.99
2017-08-19T04:03:12.902Z,99.99
2017-08-19T04:04:14.788Z,99.99
2017-08-19T04:05:28.999Z,99.99
2017-08-19T04:06:30.881Z,99.99
2017-08-19T04:07:32.766Z,99.99
2017-08-19T04:08:34.654Z,99.99
2017-08-19T04:09:36.481Z,99.99
2017-08-19T04:10:38.311Z,99.99
2017-08-19T04:11:40.196Z,99.99
2017-08-19T04:12:42.084Z,99.99
2017-08-19T04:13:43.967Z,99.99
2017-08-19T04:14:58.139Z,99.99
2017-08-19T04:16:00.024Z,99.99
2017-08-19T04:17:01.914Z,99.99
2017-08-19T04:18:03.801Z,99.99
2017-08-19T04:19:05.627Z,99.99
2017-08-19T04:20:07.455Z,99.99
2017-08-19T04:21:09.344Z,99.99
2017-08-19T04:22:11.231Z,99.99
2017-08-19T04:23:13.117Z,99.99
2017-08-19T04:24:27.278Z,99.99
2017-08-19T04:25:29.163Z,99.99
2017-08-19T04:26:31.065Z,99.99
2017-08-19T04:27:32.953Z,99.99
2017-08-19T04:28:34.795Z,99.99
2017-08-19T04:29:36.625Z,99.99
2017-08-19T04:30:38.536Z,99.99
2017-08-19T04:31:40.424Z,99.99
2017-08-19T04:32:42.310Z,99.99
2017-08-19T04:33:56.483Z,99.99
2017-08-19T04:34:58.371Z,99.99
2017-08-19T04:36:00.262Z,99.99
2017-08-19T04:37:02.152Z,99.99
2017-08-19T04:38:03.982Z,99.99
2017-08-19T04:39:05.810Z,99.99
2017-08-19T04:40:07.696Z,99.99
2017-08-19T04:41:09.585Z,99.99
2017-08-19T04:42:11.472Z,99.99
2017-08-19T04:43:25.635Z,99.99
2017-08-19T04:44:27.520Z,99.99
2017-08-19T04:45:29.419Z,99.99
2017-08-19T04:46:31.310Z,99.99
2017-08-19T04:47:33.138Z,99.99
2017-08-19T04:48:34.967Z,99.99
2017-08-19T04:49:36.855Z,99.99
2017-08-19T04:50:38.742Z,99.99
2017-08-19T04:51:40.630Z,99.99
2017-08-19T04:52:54.810Z,99.99
2017-08-19T04:53:56.690Z,99.99
2017-08-19T04:54:58.581Z,99.99
2017-08-19T04:56:00.470Z,99.99
2017-08-19T04:57:02.302Z,99.99
2017-08-19T04:58:04.142Z,99.99
2017-08-19T04:59:06.031Z,99.99
2017-08-19T05:00:07.917Z,99.99
2017-08-19T05:01:09.806Z,99.99
2017-08-19T05:02:23.979Z,99.99
2017-08-19T05:03:25.865Z,99.99
2017-08-19T05:04:27.760Z,99.99
2017-08-19T05:05:29.649Z,99.99
2017-08-19T05:06:31.479Z,99.99
2017-08-19T05:07:33.308Z,99.99
2017-08-19T05:08:35.195Z,99.99
2017-08-19T05:09:37.084Z,99.99
2017-08-19T05:10:38.971Z,99.99
2017-08-19T05:11:53.143Z,99.99
2017-08-19T05:12:55.028Z,99.99
2017-08-19T05:13:56.919Z,99.99
2017-08-19T05:14:58.807Z,99.99
2017-08-19T05:16:00.635Z,99.99
2017-08-19T05:17:02.465Z,99.99
2017-08-19T05:18:04.351Z,99.99
2017-08-19T05:19:06.239Z,99.99
2017-08-19T05:20:08.125Z,99.99
2017-08-19T05:21:22.297Z,99.99
2017-08-19T05:22:24.184Z,99.99
2017-08-19T05:23:26.084Z,99.99
2017-08-19T05:24:27.976Z,99.99
2017-08-19T05:25:29.806Z,99.99
2017-08-19T05:26:31.635Z,99.99
2017-08-19T05:27:33.524Z,99.99
2017-08-19T05:28:35.410Z,99.99
2017-08-19T05:29:37.298Z,99.99
2017-08-19T05:30:51.461Z,99.99
2017-08-19T05:31:53.348Z,99.99
2017-08-19T05:32:55.240Z,99.99
2017-08-19T05:33:57.132Z,99.99
2017-08-19T05:34:58.960Z,99.99
2017-08-19T05:36:00.790Z,99.99
2017-08-19T05:37:02.679Z,99.99
2017-08-19T05:38:04.567Z,99.99
2017-08-19T05:39:06.454Z,99.99
2017-08-19T05:40:20.628Z,99.99
2017-08-19T05:41:22.514Z,99.99
2017-08-19T05:42:24.405Z,99.99
2017-08-19T05:43:26.295Z,99.99
2017-08-19T05:44:28.123Z,99.99
2017-08-19T05:45:29.954Z,99.99
2017-08-19T05:46:31.851Z,99.99
2017-08-19T05:47:33.737Z,99.99
2017-08-19T05:48:35.626Z,99.99
2017-08-19T05:49:49.842Z,99.99
2017-08-19T05:50:51.728Z,99.99
2017-08-19T05:51:53.618Z,99.99
2017-08-19T05:52:55.524Z,99.99
2017-08-19T05:53:57.352Z,99.99
2017-08-19T05:54:59.183Z,99.99
2017-08-19T05:56:01.072Z,99.99
2017-08-19T05:57:02.962Z,99.99
2017-08-19T05:58:04.850Z,99.99
2017-08-19T05:59:19.026Z,99.99
2017-08-19T06:00:20.914Z,99.99
2017-08-19T06:01:22.814Z,99.99
2017-08-19T06:02:24.711Z,99.99
2017-08-19T06:03:26.543Z,99.99
2017-08-19T06:04:28.373Z,99.99
2017-08-19T06:05:30.267Z,99.99
2017-08-19T06:06:32.156Z,99.99
2017-08-19T06:07:34.043Z,99.99
2017-08-19T06:08:48.211Z,99.99
2017-08-19T06:09:50.097Z,99.99
2017-08-19T06:10:51.998Z,99.99
2017-08-19T06:11:53.892Z,99.99
2017-08-19T06:12:55.720Z,99.99
2017-08-19T06:13:57.551Z,99.99
2017-08-19T06:14:59.440Z,99.99
2017-08-19T06:16:01.330Z,99.99
2017-08-19T06:17:03.220Z,99.99
2017-08-19T06:18:17.396Z,99.99
2017-08-19T06:19:19.284Z,99.99
2017-08-19T06:20:21.185Z,99.99
2017-08-19T06:21:23.078Z,99.99
2017-08-19T06:22:24.907Z,99.99
2017-08-19T06:23:26.739Z,99.99
2017-08-19T06:24:28.630Z,99.99
2017-08-19T06:25:30.522Z,99.99
2017-08-19T06:26:32.420Z,99.99
2017-08-19T06:27:46.582Z,99.99
2017-08-19T06:28:48.472Z,99.99
2017-08-19T06:29:50.365Z,99.99
2017-08-19T06:30:52.257Z,99.99
2017-08-19T06:31:54.086Z,99.99
2017-08-19T06:32:55.918Z,99.99
2017-08-19T06:33:57.806Z,99.99
2017-08-19T06:34:59.697Z,99.99
2017-08-19T06:36:01.581Z,99.99
2017-08-19T06:37:15.759Z,99.99
2017-08-19T06:38:17.646Z,99.99
2017-08-19T06:39:19.540Z,99.99
2017-08-19T06:40:21.432Z,99.99
2017-08-19T06:41:23.266Z,99.99
2017-08-19T06:42:25.097Z,99.99
2017-08-19T06:43:26.987Z,99.99
2017-08-19T06:44:28.876Z,99.99
2017-08-19T06:45:30.769Z,99.99
2017-08-19T06:46:44.933Z,99.99
2017-08-19T06:47:46.821Z,99.99
2017-08-19T06:48:48.712Z,99.99
2017-08-19T06:49:50.605Z,99.99
2017-08-19T06:50:52.435Z,99.99
2017-08-19T06:51:54.278Z,99.99
2017-08-19T06:52:56.168Z,99.99
2017-08-19T06:53:58.061Z,99.99
2017-08-19T06:54:59.953Z,99.99
2017-08-19T06:56:14.099Z,99.99
2017-08-19T06:57:15.940Z,99.99
2017-08-19T06:58:17.769Z,99.99
2017-08-19T06:59:19.664Z,99.99
2017-08-19T07:00:21.555Z,99.99
2017-08-19T07:01:23.434Z,99.99
2017-08-19T07:02:25.264Z,99.64
2017-08-19T07:03:27.097Z,99.99
2017-08-19T07:04:28.987Z,99.99
2017-08-19T07:05:43.212Z,99.99
2017-08-19T07:06:45.101Z,99.99
2017-08-19T07:07:46.993Z,99.99
2017-08-19T07:08:48.884Z,99.99
2017-08-19T07:09:50.730Z,99.99
2017-08-19T07:10:52.557Z,99.99
2017-08-19T07:11:54.453Z,99.99
2017-08-19T07:12:56.342Z,99.99
2017-08-19T07:13:58.444Z,99.99
2017-08-19T07:15:13.186Z,99.99
2017-08-19T07:16:15.125Z,99.99
2017-08-19T07:17:17.018Z,99.99
2017-08-19T07:18:18.910Z,99.99
2017-08-19T07:19:20.742Z,99.99
2017-08-19T07:20:22.575Z,99.99
2017-08-19T07:21:24.462Z,99.99
2017-08-19T07:22:26.354Z,99.99
2017-08-19T07:23:28.241Z,99.50
2017-08-19T07:24:42.526Z,99.99
2017-08-19T07:25:44.392Z,99.99
2017-08-19T07:26:46.286Z,99.99
2017-08-19T07:27:48.196Z,99.99
2017-08-19T07:28:50.038Z,99.99
2017-08-19T07:29:51.871Z,99.99
2017-08-19T07:30:53.787Z,99.99
2017-08-19T07:31:55.676Z,99.99
2017-08-19T07:32:57.565Z,99.99
2017-08-19T07:34:11.742Z,99.99
2017-08-19T07:35:13.632Z,99.99
2017-08-19T07:36:15.536Z,99.99
2017-08-19T07:37:17.430Z,98.87
2017-08-19T07:38:19.264Z,99.59
2017-08-19T07:39:21.109Z,99.99
2017-08-19T07:40:23.000Z,99.99
2017-08-19T07:41:24.896Z,99.99
2017-08-19T07:42:26.786Z,99.99
2017-08-19T07:43:40.955Z,99.99
2017-08-19T07:44:42.845Z,99.99
2017-08-19T07:45:44.741Z,99.99
2017-08-19T07:46:46.636Z,99.99
2017-08-19T07:47:48.470Z,99.99
2017-08-19T07:48:50.303Z,99.99
2017-08-19T07:49:52.194Z,99.99
2017-08-19T07:50:54.083Z,99.99
2017-08-19T07:51:55.974Z,99.99
2017-08-19T07:53:10.141Z,99.99
2017-08-19T07:54:12.031Z,99.99
2017-08-19T07:55:13.923Z,96.75
2017-08-19T07:56:15.816Z,98.15
2017-08-19T07:57:17.646Z,94.29
2017-08-19T07:58:19.490Z,98.49
2017-08-19T07:59:21.382Z,99.99
2017-08-19T08:00:23.272Z,99.99
2017-08-19T08:01:25.167Z,99.99
2017-08-19T08:02:39.339Z,99.99
2017-08-19T08:03:41.228Z,99.99
2017-08-19T08:04:43.125Z,99.99
2017-08-19T08:05:45.022Z,99.99
2017-08-19T08:06:46.859Z,99.99
2017-08-19T08:07:48.689Z,99.98
2017-08-19T08:08:50.587Z,99.99
2017-08-19T08:09:52.480Z,94.78
2017-08-19T08:10:54.373Z,93.43
2017-08-19T08:12:08.567Z,95.59
2017-08-19T08:13:10.452Z,97.52
2017-08-19T08:14:12.376Z,99.64
2017-08-19T08:15:15.113Z,99.99
2017-08-19T08:16:17.385Z,99.99
2017-08-19T08:17:19.920Z,99.99
2017-08-19T08:18:21.894Z,98.54
2017-08-19T08:19:23.817Z,95.11
2017-08-19T08:20:25.707Z,98.34
2017-08-19T08:21:39.920Z,99.99
2017-08-19T08:22:41.876Z,98.63
2017-08-19T08:23:43.805Z,95.93
2017-08-19T08:24:45.703Z,92.17
2017-08-19T08:25:47.553Z,92.13
2017-08-19T08:26:49.819Z,94.24
2017-08-19T08:27:51.876Z,96.37
2017-08-19T08:28:54.177Z,98.73
2017-08-19T08:29:56.387Z,99.99
2017-08-19T08:31:10.595Z,99.99
2017-08-19T08:32:12.531Z,99.99
2017-08-19T08:33:14.798Z,99.99
2017-08-19T08:34:16.775Z,99.11
2017-08-19T08:35:18.613Z,91.88
2017-08-19T08:36:20.452Z,93.28
2017-08-19T08:37:22.355Z,95.50
2017-08-19T08:38:24.287Z,98.58
2017-08-19T08:39:26.633Z,99.60
2017-08-19T08:40:40.862Z,99.99
2017-08-19T08:41:43.170Z,98.15
2017-08-19T08:42:45.105Z,98.78
2017-08-19T08:43:47.008Z,99.26
2017-08-19T08:44:48.905Z,98.49
2017-08-19T08:45:51.090Z,97.62
2017-08-19T08:46:53.011Z,97.67
2017-08-19T08:47:54.912Z,96.51
2017-08-19T08:48:56.805Z,97.28
2017-08-19T08:50:10.979Z,94.87
2017-08-19T08:51:12.882Z,95.68
2017-08-19T08:52:15.097Z,95.54
2017-08-19T08:53:17.404Z,90.57
2017-08-19T08:54:19.263Z,93.56
2017-08-19T08:55:21.113Z,95.01
2017-08-19T08:56:22.998Z,96.36
2017-08-19T08:57:24.893Z,97.28
2017-08-19T08:58:26.812Z,98.63
2017-08-19T08:59:40.972Z,95.45
2017-08-19T09:00:42.875Z,93.71
2017-08-19T09:01:44.772Z,96.70
2017-08-19T09:02:46.661Z,95.64
2017-08-19T09:03:48.498Z,93.51
2017-08-19T09:04:50.335Z,91.97
2017-08-19T09:05:52.228Z,90.81
2017-08-19T09:06:54.133Z,86.56
2017-08-19T09:07:56.094Z,90.47
2017-08-19T09:09:10.270Z,91.73
2017-08-19T09:10:12.506Z,84.48
2017-08-19T09:11:14.410Z,88.15
2017-08-19T09:12:16.312Z,87.09
2017-08-19T09:13:18.151Z,90.09
2017-08-19T09:14:19.991Z,88.35
2017-08-19T09:15:22.220Z,88.54
2017-08-19T09:16:24.123Z,85.84
2017-08-19T09:17:26.063Z,81.26
2017-08-19T09:18:40.561Z,80.00
2017-08-19T09:19:42.467Z,81.41
2017-08-19T09:20:44.387Z,81.51
2017-08-19T09:21:46.625Z,81.12
2017-08-19T09:22:48.474Z,84.31
2017-08-19T09:23:50.309Z,87.05
2017-08-19T09:24:52.218Z,86.90
2017-08-19T09:25:54.193Z,84.48
2017-08-19T09:26:56.073Z,85.36
2017-08-19T09:28:10.709Z,83.95
2017-08-19T09:29:13.009Z,84.43
2017-08-19T09:30:15.306Z,79.89
2017-08-19T09:31:17.642Z,79.02
2017-08-19T09:32:19.581Z,79.89
2017-08-19T09:33:21.774Z,81.15
2017-08-19T09:34:23.708Z,81.63
2017-08-19T09:35:25.610Z,81.19
2017-08-19T09:36:27.521Z,79.45
2017-08-19T09:37:41.703Z,79.45
2017-08-19T09:38:44.104Z,81.04
2017-08-19T09:39:46.098Z,79.39
2017-08-19T09:40:47.995Z,76.33
2017-08-19T09:41:49.855Z,74.75
2017-08-19T09:42:51.710Z,73.01
2017-08-19T09:43:53.978Z,70.88
2017-08-19T09:44:55.902Z,70.98
2017-08-19T09:45:57.800Z,70.30
2017-08-19T09:47:11.970Z,68.52
2017-08-19T09:48:13.861Z,70.07
2017-08-19T09:49:15.760Z,71.33
2017-08-19T09:50:18.021Z,71.72
2017-08-19T09:51:19.903Z,69.78
2017-08-19T09:52:21.723Z,69.20
2017-08-19T09:53:23.622Z,68.52
2017-08-19T09:54:25.569Z,67.91
2017-08-19T09:55:27.448Z,69.17
2017-08-19T09:56:41.623Z,71.81
2017-08-19T09:57:43.532Z,71.75
2017-08-19T09:58:45.465Z,71.78
2017-08-19T09:59:47.697Z,70.72
2017-08-19T10:00:49.547Z,69.79
2017-08-19T10:01:51.392Z,68.15
2017-08-19T10:02:53.284Z,68.15
2017-08-19T10:03:55.190Z,68.27
2017-08-19T10:04:57.082Z,66.72
2017-08-19T10:06:11.575Z,67.11
2017-08-19T10:07:13.478Z,66.02
2017-08-19T10:08:15.707Z,66.72
2017-08-19T10:09:17.990Z,66.92
2017-08-19T10:10:19.840Z,67.63
2017-08-19T10:11:21.685Z,66.95
2017-08-19T10:12:23.577Z,65.05
2017-08-19T10:13:25.474Z,62.01
2017-08-19T10:14:27.711Z,60.94
2017-08-19T10:15:41.904Z,60.43
2017-08-19T10:16:44.131Z,61.66
2017-08-19T10:17:46.408Z,61.27
2017-08-19T10:18:48.648Z,61.85
2017-08-19T10:19:50.848Z,62.04
2017-08-19T10:20:53.051Z,62.53
2017-08-19T10:21:55.297Z,62.92
2017-08-19T10:22:57.564Z,61.98
2017-08-19T10:23:59.807Z,61.40
2017-08-19T10:25:14.347Z,60.98
2017-08-19T10:26:16.586Z,62.14
2017-08-19T10:27:18.834Z,62.66
2017-08-19T10:28:20.779Z,61.49
2017-08-19T10:29:22.955Z,61.79
2017-08-19T10:30:24.805Z,61.79
2017-08-19T10:31:27.043Z,60.62
2017-08-19T10:32:29.400Z,59.23
2017-08-19T10:33:31.738Z,59.53
2017-08-19T10:34:46.554Z,60.40
2017-08-19T10:35:48.813Z,59.98
2017-08-19T10:36:51.094Z,59.43
2017-08-19T10:37:53.430Z,60.30
2017-08-19T10:38:55.858Z,61.18
2017-08-19T10:39:58.043Z,60.11
2017-08-19T10:41:00.351Z,58.47
2017-08-19T10:42:02.601Z,56.70
2017-08-19T10:43:04.856Z,57.63
2017-08-19T10:44:19.535Z,58.21
2017-08-19T10:45:21.895Z,59.56
2017-08-19T10:46:23.854Z,61.11
2017-08-19T10:47:26.088Z,61.72
2017-08-19T10:48:28.268Z,61.24
2017-08-19T10:49:30.450Z,60.95
2017-08-19T10:50:32.710Z,60.50
2017-08-19T10:51:34.986Z,57.66
2017-08-19T10:52:37.275Z,57.86
2017-08-19T10:53:51.795Z,58.14
2017-08-19T10:54:54.068Z,58.44
2017-08-19T10:55:56.347Z,57.50
2017-08-19T10:56:58.620Z,57.79
2017-08-19T10:58:01.050Z,58.65
2017-08-19T10:59:03.307Z,59.07
2017-08-19T11:00:05.544Z,59.46
2017-08-19T11:01:07.782Z,58.42
2017-08-19T11:02:09.817Z,57.68
2017-08-19T11:03:24.339Z,54.19
2017-08-19T11:04:26.612Z,54.48
2017-08-19T11:05:28.962Z,52.64
2017-08-19T11:06:31.295Z,52.83
2017-08-19T11:07:33.522Z,53.51
2017-08-19T11:08:35.466Z,54.38
2017-08-19T11:09:37.717Z,54.50
2017-08-19T11:10:40.026Z,55.38
2017-08-19T11:11:42.330Z,53.63
2017-08-19T11:12:56.657Z,52.47
2017-08-19T11:13:58.961Z,52.56
2017-08-19T11:15:01.335Z,53.15
2017-08-19T11:16:03.303Z,53.95
2017-08-19T11:17:05.488Z,53.75
2017-08-19T11:18:07.708Z,51.84
2017-08-19T11:19:09.977Z,49.68
2017-08-19T11:20:12.354Z,49.56
2017-08-19T11:21:14.716Z,49.82
2017-08-19T11:22:28.916Z,49.32
2017-08-19T11:23:30.818Z,51.04
2017-08-19T11:24:32.717Z,52.68
2017-08-19T11:25:34.628Z,54.06
2017-08-19T11:26:36.462Z,53.09
2017-08-19T11:27:38.297Z,53.89
2017-08-19T11:28:40.205Z,52.54
2017-08-19T11:29:42.137Z,50.31
2017-08-19T11:30:44.025Z,49.73
2017-08-19T11:31:58.254Z,49.73
2017-08-19T11:33:00.148Z,50.21
2017-08-19T11:34:02.046Z,50.99
2017-08-19T11:35:03.957Z,51.86
2017-08-19T11:36:05.799Z,50.50
2017-08-19T11:37:07.668Z,50.62
2017-08-19T11:38:09.568Z,50.21
2017-08-19T11:39:11.470Z,51.09
2017-08-19T11:40:13.380Z,51.18
2017-08-19T11:41:27.550Z,51.89
2017-08-19T11:42:29.450Z,51.79
2017-08-19T11:43:31.353Z,51.89
2017-08-19T11:44:33.255Z,50.84
2017-08-19T11:45:35.082Z,51.23
2017-08-19T11:46:36.948Z,51.35
2017-08-19T11:47:38.846Z,51.84
2017-08-19T11:48:40.745Z,51.93
2017-08-19T11:49:42.645Z,51.45
2017-08-19T11:50:56.816Z,50.89
2017-08-19T11:51:58.716Z,51.87
2017-08-19T11:53:00.622Z,51.79
2017-08-19T11:54:02.529Z,51.87
2017-08-19T11:55:04.364Z,52.28
2017-08-19T11:56:06.201Z,51.99
2017-08-19T11:57:08.115Z,50.82
2017-08-19T11:58:10.027Z,49.66
2017-08-19T11:59:11.908Z,49.49
2017-08-19T12:00:26.076Z,50.07
2017-08-19T12:01:27.994Z,50.07
2017-08-19T12:02:29.907Z,49.68
2017-08-19T12:03:31.805Z,49.32
2017-08-19T12:04:33.633Z,48.71
2017-08-19T12:05:35.484Z,48.63
2017-08-19T12:06:37.397Z,48.73
2017-08-19T12:07:39.296Z,48.83
2017-08-19T12:08:41.193Z,48.25
2017-08-19T12:09:55.372Z,48.15
2017-08-19T12:10:57.285Z,48.83
2017-08-19T12:11:59.185Z,48.34
2017-08-19T12:13:01.091Z,48.34
2017-08-19T12:14:02.923Z,48.15
2017-08-19T12:15:04.782Z,48.34
2017-08-19T12:16:06.678Z,47.64
2017-08-19T12:17:08.642Z,48.13
2017-08-19T12:18:10.533Z,47.54
2017-08-19T12:19:24.772Z,48.03
2017-08-19T12:20:26.677Z,48.61
2017-08-19T12:21:28.582Z,48.71
2017-08-19T12:22:30.479Z,49.29
2017-08-19T12:23:32.326Z,48.71
2017-08-19T12:24:34.174Z,48.80
2017-08-19T12:25:36.085Z,48.51
2017-08-19T12:26:37.975Z,49.61
2017-08-19T12:27:39.879Z,49.41
2017-08-19T12:28:54.172Z,49.02
2017-08-19T12:29:56.070Z,49.80
2017-08-19T12:30:57.965Z,49.02
2017-08-19T12:31:59.877Z,49.32
2017-08-19T12:33:02.220Z,48.63
2017-08-19T12:34:04.079Z,48.63
2017-08-19T12:35:05.983Z,48.44
2017-08-19T12:36:07.885Z,48.07
2017-08-19T12:37:09.781Z,47.59
2017-08-19T12:38:23.957Z,46.81
2017-08-19T12:39:25.862Z,46.03
2017-08-19T12:40:27.758Z,46.01
2017-08-19T12:41:29.665Z,45.91
2017-08-19T12:42:31.509Z,46.78
2017-08-19T12:43:33.355Z,46.78
2017-08-19T12:44:35.265Z,47.08
2017-08-19T12:45:37.161Z,47.08
2017-08-19T12:46:39.109Z,46.96
2017-08-19T12:47:53.331Z,46.67
2017-08-19T12:48:55.258Z,46.57
2017-08-19T12:49:57.149Z,47.83
2017-08-19T12:50:59.057Z,48.13
2017-08-19T12:52:00.902Z,47.74
2017-08-19T12:53:02.746Z,47.34
2017-08-19T12:54:04.651Z,47.64
2017-08-19T12:55:06.517Z,47.54
2017-08-19T12:56:08.355Z,48.41
2017-08-19T12:57:22.533Z,48.13
2017-08-19T12:58:24.441Z,48.22
2017-08-19T12:59:26.346Z,48.51
2017-08-19T13:00:28.245Z,48.00
2017-08-19T13:01:30.083Z,48.58
2017-08-19T13:02:31.925Z,49.00
2017-08-19T13:03:33.819Z,48.90
2017-08-19T13:04:35.713Z,49.58
2017-08-19T13:05:37.621Z,50.26
2017-08-19T13:06:51.813Z,50.26
2017-08-19T13:07:53.714Z,50.19
2017-08-19T13:08:55.610Z,49.58
2017-08-19T13:09:57.570Z,49.39
2017-08-19T13:10:59.460Z,48.61
2017-08-19T13:12:01.313Z,48.73
2017-08-19T13:13:03.211Z,49.51
2017-08-19T13:14:05.108Z,49.22
2017-08-19T13:15:07.012Z,48.83
2017-08-19T13:16:21.184Z,48.17
2017-08-19T13:17:23.089Z,47.98
2017-08-19T13:18:24.993Z,48.07
2017-08-19T13:19:26.893Z,47.88
2017-08-19T13:20:28.748Z,47.98
2017-08-19T13:21:30.589Z,48.68
2017-08-19T13:22:32.480Z,48.97
2017-08-19T13:23:34.378Z,48.19
2017-08-19T13:24:36.289Z,48.39
2017-08-19T13:25:50.455Z,48.22
2017-08-19T13:26:52.363Z,48.12
2017-08-19T13:27:54.271Z,47.63
2017-08-19T13:28:56.174Z,47.90
2017-08-19T13:29:58.008Z,47.80
2017-08-19T13:30:59.856Z,48.39
2017-08-19T13:32:01.767Z,48.10
2017-08-19T13:33:03.678Z,47.90
2017-08-19T13:34:05.557Z,47.80
2017-08-19T13:35:19.742Z,47.71